sensor_id;sensor_type;location;lat;lon;timestamp;P1;durP1;ratioP1;P2;durP2;ratioP2
55879;SDS011;41802;51.564;-1.838;2022-12-18T00:00:56;10.38;;;3.78;;
55879;SDS011;41802;51.564;-1.838;2022-12-18T00:03:22;13.68;;;4.32;;
55879;SDS011;41802;51.564;-1.838;2022-12-18T00:05:52;12.63;;;4.00;;
55879;SDS011;41802;51.564;-1.838;2022-12-18T00:08:19;12.60;;;3.90;;
55879;SDS011;41802;51.564;-1.838;2022-12-18T00:10:45;12.32;;;3.42;;
55879;SDS011;41802;51.564;-1.838;2022-12-18T00:13:12;12.30;;;4.07;;
55879;SDS011;41802;51.564;-1.838;2022-12-18T00:15:39;13.88;;;3.85;;
55879;SDS011;41802;51.564;-1.838;2022-12-18T00:18:05;12.03;;;4.03;;
55879;SDS011;41802;51.564;-1.838;2022-12-18T00:20:35;12.02;;;3.90;;
55879;SDS011;41802;51.564;-1.838;2022-12-18T00:23:03;11.57;;;3.88;;
55879;SDS011;41802;51.564;-1.838;2022-12-18T00:25:29;12.68;;;4.35;;
55879;SDS011;41802;51.564;-1.838;2022-12-18T00:27:56;14.07;;;4.45;;
55879;SDS011;41802;51.564;-1.838;2022-12-18T00:30:22;16.30;;;4.00;;
55879;SDS011;41802;51.564;-1.838;2022-12-18T00:32:49;15.32;;;4.95;;
55879;SDS011;41802;51.564;-1.838;2022-12-18T00:35:15;15.57;;;4.50;;
55879;SDS011;41802;51.564;-1.838;2022-12-18T00:37:42;13.10;;;4.30;;
55879;SDS011;41802;51.564;-1.838;2022-12-18T00:40:11;13.40;;;4.38;;
55879;SDS011;41802;51.564;-1.838;2022-12-18T00:42:40;12.20;;;4.03;;
55879;SDS011;41802;51.564;-1.838;2022-12-18T00:45:20;13.15;;;4.05;;
55879;SDS011;41802;51.564;-1.838;2022-12-18T00:47:50;17.38;;;5.03;;
55879;SDS011;41802;51.564;-1.838;2022-12-18T00:50:17;13.18;;;4.63;;
55879;SDS011;41802;51.564;-1.838;2022-12-18T00:52:43;14.07;;;4.57;;
55879;SDS011;41802;51.564;-1.838;2022-12-18T00:55:15;15.90;;;5.07;;
55879;SDS011;41802;51.564;-1.838;2022-12-18T00:57:42;19.10;;;5.55;;
55879;SDS011;41802;51.564;-1.838;2022-12-18T01:00:09;16.63;;;4.72;;
55879;SDS011;41802;51.564;-1.838;2022-12-18T01:02:36;15.30;;;5.53;;
55879;SDS011;41802;51.564;-1.838;2022-12-18T01:05:02;15.40;;;4.93;;
55879;SDS011;41802;51.564;-1.838;2022-12-18T01:07:29;20.57;;;5.67;;
55879;SDS011;41802;51.564;-1.838;2022-12-18T01:09:56;16.83;;;5.93;;
55879;SDS011;41802;51.564;-1.838;2022-12-18T01:12:23;17.20;;;5.53;;
55879;SDS011;41802;51.564;-1.838;2022-12-18T01:14:50;18.23;;;6.15;;
55879;SDS011;41802;51.564;-1.838;2022-12-18T01:17:16;16.25;;;5.55;;
55879;SDS011;41802;51.564;-1.838;2022-12-18T01:19:43;16.03;;;5.47;;
55879;SDS011;41802;51.564;-1.838;2022-12-18T01:22:09;15.52;;;5.35;;
55879;SDS011;41802;51.564;-1.838;2022-12-18T01:24:36;17.90;;;5.53;;
55879;SDS011;41802;51.564;-1.838;2022-12-18T01:27:02;18.63;;;6.03;;
55879;SDS011;41802;51.564;-1.838;2022-12-18T01:29:32;17.13;;;5.10;;
55879;SDS011;41802;51.564;-1.838;2022-12-18T01:31:58;17.03;;;6.13;;
55879;SDS011;41802;51.564;-1.838;2022-12-18T01:34:25;17.88;;;5.90;;
55879;SDS011;41802;51.564;-1.838;2022-12-18T01:36:52;26.52;;;6.82;;
55879;SDS011;41802;51.564;-1.838;2022-12-18T01:39:18;19.58;;;7.32;;
55879;SDS011;41802;51.564;-1.838;2022-12-18T01:41:45;20.42;;;6.45;;
55879;SDS011;41802;51.564;-1.838;2022-12-18T01:47:30;23.85;;;6.70;;
55879;SDS011;41802;51.564;-1.838;2022-12-18T01:49:58;20.88;;;6.93;;
55879;SDS011;41802;51.564;-1.838;2022-12-18T01:52:28;20.70;;;6.07;;
55879;SDS011;41802;51.564;-1.838;2022-12-18T01:54:54;20.42;;;7.38;;
55879;SDS011;41802;51.564;-1.838;2022-12-18T01:57:21;22.13;;;7.67;;
55879;SDS011;41802;51.564;-1.838;2022-12-18T01:59:49;19.10;;;6.80;;
55879;SDS011;41802;51.564;-1.838;2022-12-18T02:02:17;25.52;;;6.88;;
55879;SDS011;41802;51.564;-1.838;2022-12-18T02:04:46;20.02;;;6.78;;
55879;SDS011;41802;51.564;-1.838;2022-12-18T02:07:14;21.27;;;6.90;;
55879;SDS011;41802;51.564;-1.838;2022-12-18T02:09:46;23.77;;;8.10;;
55879;SDS011;41802;51.564;-1.838;2022-12-18T02:12:16;22.63;;;7.05;;
55879;SDS011;41802;51.564;-1.838;2022-12-18T02:14:44;25.38;;;7.38;;
55879;SDS011;41802;51.564;-1.838;2022-12-18T02:17:13;19.08;;;6.47;;
55879;SDS011;41802;51.564;-1.838;2022-12-18T02:19:46;22.65;;;6.82;;
55879;SDS011;41802;51.564;-1.838;2022-12-18T02:22:18;21.97;;;7.30;;
55879;SDS011;41802;51.564;-1.838;2022-12-18T02:24:48;23.30;;;7.82;;
55879;SDS011;41802;51.564;-1.838;2022-12-18T02:27:21;24.92;;;7.93;;
55879;SDS011;41802;51.564;-1.838;2022-12-18T02:29:49;25.90;;;7.57;;
55879;SDS011;41802;51.564;-1.838;2022-12-18T02:32:18;23.65;;;7.90;;
55879;SDS011;41802;51.564;-1.838;2022-12-18T02:34:45;23.10;;;6.80;;
55879;SDS011;41802;51.564;-1.838;2022-12-18T02:37:13;18.60;;;6.60;;
55879;SDS011;41802;51.564;-1.838;2022-12-18T02:39:42;20.45;;;6.55;;
55879;SDS011;41802;51.564;-1.838;2022-12-18T02:42:09;22.98;;;7.82;;
55879;SDS011;41802;51.564;-1.838;2022-12-18T02:44:42;20.05;;;6.40;;
55879;SDS011;41802;51.564;-1.838;2022-12-18T02:47:09;25.10;;;7.40;;
55879;SDS011;41802;51.564;-1.838;2022-12-18T02:49:39;19.40;;;7.28;;
55879;SDS011;41802;51.564;-1.838;2022-12-18T02:52:08;18.73;;;6.30;;
55879;SDS011;41802;51.564;-1.838;2022-12-18T02:54:39;18.52;;;6.38;;
55879;SDS011;41802;51.564;-1.838;2022-12-18T02:57:13;22.45;;;7.35;;
55879;SDS011;41802;51.564;-1.838;2022-12-18T02:59:41;21.10;;;7.07;;
55879;SDS011;41802;51.564;-1.838;2022-12-18T03:02:16;18.63;;;6.22;;
55879;SDS011;41802;51.564;-1.838;2022-12-18T03:04:46;20.23;;;7.28;;
55879;SDS011;41802;51.564;-1.838;2022-12-18T03:07:15;21.10;;;7.88;;
55879;SDS011;41802;51.564;-1.838;2022-12-18T03:09:43;20.55;;;6.95;;
55879;SDS011;41802;51.564;-1.838;2022-12-18T03:12:12;20.60;;;6.67;;
55879;SDS011;41802;51.564;-1.838;2022-12-18T03:14:50;26.15;;;7.72;;
55879;SDS011;41802;51.564;-1.838;2022-12-18T03:17:19;19.45;;;7.40;;
55879;SDS011;41802;51.564;-1.838;2022-12-18T03:19:53;20.02;;;7.28;;
55879;SDS011;41802;51.564;-1.838;2022-12-18T03:22:22;25.27;;;8.48;;
55879;SDS011;41802;51.564;-1.838;2022-12-18T03:24:51;19.20;;;6.97;;
55879;SDS011;41802;51.564;-1.838;2022-12-18T03:27:19;23.42;;;7.35;;
55879;SDS011;41802;51.564;-1.838;2022-12-18T03:29:47;17.65;;;7.40;;
55879;SDS011;41802;51.564;-1.838;2022-12-18T03:32:15;20.83;;;7.25;;
55879;SDS011;41802;51.564;-1.838;2022-12-18T03:34:45;23.77;;;7.85;;
55879;SDS011;41802;51.564;-1.838;2022-12-18T03:37:12;21.03;;;6.83;;
55879;SDS011;41802;51.564;-1.838;2022-12-18T03:39:39;19.48;;;7.38;;
55879;SDS011;41802;51.564;-1.838;2022-12-18T03:42:06;20.30;;;7.78;;
55879;SDS011;41802;51.564;-1.838;2022-12-18T03:44:35;18.90;;;7.03;;
55879;SDS011;41802;51.564;-1.838;2022-12-18T03:47:05;18.20;;;6.97;;
55879;SDS011;41802;51.564;-1.838;2022-12-18T03:49:34;19.63;;;7.43;;
55879;SDS011;41802;51.564;-1.838;2022-12-18T03:52:04;19.60;;;6.22;;
55879;SDS011;41802;51.564;-1.838;2022-12-18T03:54:30;22.63;;;7.63;;
55879;SDS011;41802;51.564;-1.838;2022-12-18T03:56:58;18.65;;;7.07;;
55879;SDS011;41802;51.564;-1.838;2022-12-18T03:59:26;25.35;;;7.85;;
55879;SDS011;41802;51.564;-1.838;2022-12-18T04:01:55;27.03;;;8.00;;
55879;SDS011;41802;51.564;-1.838;2022-12-18T04:04:23;27.98;;;9.27;;
55879;SDS011;41802;51.564;-1.838;2022-12-18T04:06:50;26.30;;;7.97;;
55879;SDS011;41802;51.564;-1.838;2022-12-18T04:09:18;23.08;;;7.93;;
55879;SDS011;41802;51.564;-1.838;2022-12-18T04:11:45;20.77;;;7.82;;
55879;SDS011;41802;51.564;-1.838;2022-12-18T04:14:12;19.73;;;6.47;;
55879;SDS011;41802;51.564;-1.838;2022-12-18T04:16:39;21.50;;;7.68;;
55879;SDS011;41802;51.564;-1.838;2022-12-18T04:19:05;21.23;;;6.05;;
55879;SDS011;41802;51.564;-1.838;2022-12-18T04:21:35;20.02;;;6.85;;
55879;SDS011;41802;51.564;-1.838;2022-12-18T04:24:02;23.15;;;6.63;;
55879;SDS011;41802;51.564;-1.838;2022-12-18T04:26:29;21.07;;;6.90;;
55879;SDS011;41802;51.564;-1.838;2022-12-18T04:28:56;22.25;;;7.18;;
55879;SDS011;41802;51.564;-1.838;2022-12-18T04:31:22;20.88;;;6.85;;
55879;SDS011;41802;51.564;-1.838;2022-12-18T04:33:49;21.20;;;7.43;;
55879;SDS011;41802;51.564;-1.838;2022-12-18T04:36:15;22.17;;;6.38;;
55879;SDS011;41802;51.564;-1.838;2022-12-18T04:38:42;23.23;;;7.20;;
55879;SDS011;41802;51.564;-1.838;2022-12-18T04:41:08;17.10;;;6.38;;
55879;SDS011;41802;51.564;-1.838;2022-12-18T04:43:37;19.67;;;6.63;;
55879;SDS011;41802;51.564;-1.838;2022-12-18T04:46:06;19.65;;;7.25;;
55879;SDS011;41802;51.564;-1.838;2022-12-18T04:48:33;19.30;;;6.22;;
55879;SDS011;41802;51.564;-1.838;2022-12-18T04:51:00;21.13;;;6.90;;
55879;SDS011;41802;51.564;-1.838;2022-12-18T04:53:26;20.38;;;7.13;;
55879;SDS011;41802;51.564;-1.838;2022-12-18T04:56:01;22.35;;;7.07;;
55879;SDS011;41802;51.564;-1.838;2022-12-18T04:58:31;21.30;;;7.10;;
55879;SDS011;41802;51.564;-1.838;2022-12-18T05:01:00;28.10;;;7.95;;
55879;SDS011;41802;51.564;-1.838;2022-12-18T05:03:27;20.97;;;7.63;;
55879;SDS011;41802;51.564;-1.838;2022-12-18T05:05:54;22.98;;;8.05;;
55879;SDS011;41802;51.564;-1.838;2022-12-18T05:08:22;24.15;;;7.72;;
55879;SDS011;41802;51.564;-1.838;2022-12-18T05:10:49;28.30;;;8.85;;
55879;SDS011;41802;51.564;-1.838;2022-12-18T05:13:17;21.42;;;7.90;;
55879;SDS011;41802;51.564;-1.838;2022-12-18T05:15:50;23.20;;;7.03;;
55879;SDS011;41802;51.564;-1.838;2022-12-18T05:18:19;21.88;;;7.20;;
55879;SDS011;41802;51.564;-1.838;2022-12-18T05:20:45;24.08;;;7.93;;
55879;SDS011;41802;51.564;-1.838;2022-12-18T05:23:12;21.77;;;6.93;;
55879;SDS011;41802;51.564;-1.838;2022-12-18T05:25:38;22.38;;;8.13;;
55879;SDS011;41802;51.564;-1.838;2022-12-18T05:28:05;25.93;;;8.63;;
55879;SDS011;41802;51.564;-1.838;2022-12-18T05:30:33;22.83;;;7.78;;
55879;SDS011;41802;51.564;-1.838;2022-12-18T05:33:01;24.42;;;8.05;;
55879;SDS011;41802;51.564;-1.838;2022-12-18T05:35:29;25.38;;;7.15;;
55879;SDS011;41802;51.564;-1.838;2022-12-18T05:37:55;26.85;;;7.57;;
55879;SDS011;41802;51.564;-1.838;2022-12-18T05:40:22;20.60;;;6.57;;
55879;SDS011;41802;51.564;-1.838;2022-12-18T05:42:48;23.73;;;7.90;;
55879;SDS011;41802;51.564;-1.838;2022-12-18T05:45:14;20.00;;;6.53;;
55879;SDS011;41802;51.564;-1.838;2022-12-18T05:47:41;22.65;;;7.10;;
55879;SDS011;41802;51.564;-1.838;2022-12-18T05:50:08;17.05;;;6.70;;
55879;SDS011;41802;51.564;-1.838;2022-12-18T05:52:36;21.30;;;7.17;;
55879;SDS011;41802;51.564;-1.838;2022-12-18T05:55:03;23.98;;;7.93;;
55879;SDS011;41802;51.564;-1.838;2022-12-18T05:57:30;20.27;;;8.02;;
55879;SDS011;41802;51.564;-1.838;2022-12-18T05:59:57;23.52;;;6.32;;
55879;SDS011;41802;51.564;-1.838;2022-12-18T06:02:24;22.42;;;7.65;;
55879;SDS011;41802;51.564;-1.838;2022-12-18T06:04:50;20.47;;;7.07;;
55879;SDS011;41802;51.564;-1.838;2022-12-18T06:07:17;20.23;;;7.03;;
55879;SDS011;41802;51.564;-1.838;2022-12-18T06:09:45;19.73;;;8.02;;
55879;SDS011;41802;51.564;-1.838;2022-12-18T06:12:15;23.67;;;8.10;;
55879;SDS011;41802;51.564;-1.838;2022-12-18T06:14:41;23.33;;;6.35;;
55879;SDS011;41802;51.564;-1.838;2022-12-18T06:17:09;19.93;;;7.03;;
55879;SDS011;41802;51.564;-1.838;2022-12-18T06:19:36;19.65;;;7.07;;
55879;SDS011;41802;51.564;-1.838;2022-12-18T06:22:02;20.17;;;7.05;;
55879;SDS011;41802;51.564;-1.838;2022-12-18T06:24:29;23.20;;;6.95;;
55879;SDS011;41802;51.564;-1.838;2022-12-18T06:26:57;20.63;;;6.70;;
55879;SDS011;41802;51.564;-1.838;2022-12-18T06:29:24;24.13;;;7.23;;
55879;SDS011;41802;51.564;-1.838;2022-12-18T06:31:50;23.15;;;7.15;;
55879;SDS011;41802;51.564;-1.838;2022-12-18T06:34:17;23.20;;;6.90;;
55879;SDS011;41802;51.564;-1.838;2022-12-18T06:36:43;21.02;;;6.93;;
55879;SDS011;41802;51.564;-1.838;2022-12-18T06:39:10;24.33;;;7.80;;
55879;SDS011;41802;51.564;-1.838;2022-12-18T06:41:36;23.70;;;8.20;;
55879;SDS011;41802;51.564;-1.838;2022-12-18T06:44:04;25.55;;;8.20;;
55879;SDS011;41802;51.564;-1.838;2022-12-18T06:46:32;23.75;;;8.35;;
55879;SDS011;41802;51.564;-1.838;2022-12-18T06:48:58;21.05;;;7.53;;
55879;SDS011;41802;51.564;-1.838;2022-12-18T06:51:25;26.92;;;8.48;;
55879;SDS011;41802;51.564;-1.838;2022-12-18T06:53:51;24.07;;;7.47;;
55879;SDS011;41802;51.564;-1.838;2022-12-18T06:56:18;23.25;;;7.15;;
55879;SDS011;41802;51.564;-1.838;2022-12-18T06:58:44;23.25;;;7.72;;
55879;SDS011;41802;51.564;-1.838;2022-12-18T07:01:12;23.73;;;7.35;;
55879;SDS011;41802;51.564;-1.838;2022-12-18T07:03:39;23.98;;;8.15;;
55879;SDS011;41802;51.564;-1.838;2022-12-18T07:06:06;18.23;;;6.77;;
55879;SDS011;41802;51.564;-1.838;2022-12-18T07:08:38;26.77;;;7.25;;
55879;SDS011;41802;51.564;-1.838;2022-12-18T07:11:05;24.98;;;7.90;;
55879;SDS011;41802;51.564;-1.838;2022-12-18T07:13:32;19.90;;;6.75;;
55879;SDS011;41802;51.564;-1.838;2022-12-18T07:16:03;20.08;;;6.13;;
55879;SDS011;41802;51.564;-1.838;2022-12-18T07:18:30;24.50;;;7.20;;
55879;SDS011;41802;51.564;-1.838;2022-12-18T07:20:57;20.08;;;6.50;;
55879;SDS011;41802;51.564;-1.838;2022-12-18T07:23:23;19.20;;;6.43;;
55879;SDS011;41802;51.564;-1.838;2022-12-18T07:25:50;22.65;;;6.45;;
55879;SDS011;41802;51.564;-1.838;2022-12-18T07:28:16;23.35;;;6.40;;
55879;SDS011;41802;51.564;-1.838;2022-12-18T07:30:43;20.97;;;6.07;;
55879;SDS011;41802;51.564;-1.838;2022-12-18T07:33:09;19.73;;;6.15;;
55879;SDS011;41802;51.564;-1.838;2022-12-18T07:35:38;23.83;;;6.88;;
55879;SDS011;41802;51.564;-1.838;2022-12-18T07:38:04;16.75;;;6.10;;
55879;SDS011;41802;51.564;-1.838;2022-12-18T07:40:31;18.10;;;5.90;;
55879;SDS011;41802;51.564;-1.838;2022-12-18T07:42:57;20.87;;;6.07;;
55879;SDS011;41802;51.564;-1.838;2022-12-18T07:45:24;21.70;;;6.25;;
55879;SDS011;41802;51.564;-1.838;2022-12-18T07:47:50;19.58;;;6.88;;
55879;SDS011;41802;51.564;-1.838;2022-12-18T07:50:17;19.77;;;6.13;;
55879;SDS011;41802;51.564;-1.838;2022-12-18T07:52:45;18.55;;;6.25;;
55879;SDS011;41802;51.564;-1.838;2022-12-18T07:55:13;18.20;;;5.83;;
55879;SDS011;41802;51.564;-1.838;2022-12-18T07:57:39;22.70;;;6.15;;
55879;SDS011;41802;51.564;-1.838;2022-12-18T08:00:06;23.20;;;6.07;;
55879;SDS011;41802;51.564;-1.838;2022-12-18T08:02:33;16.27;;;5.68;;
55879;SDS011;41802;51.564;-1.838;2022-12-18T08:04:59;23.20;;;6.10;;
55879;SDS011;41802;51.564;-1.838;2022-12-18T08:07:26;18.60;;;6.50;;
55879;SDS011;41802;51.564;-1.838;2022-12-18T08:09:53;18.55;;;5.53;;
55879;SDS011;41802;51.564;-1.838;2022-12-18T08:12:21;19.08;;;6.80;;
55879;SDS011;41802;51.564;-1.838;2022-12-18T08:14:48;20.00;;;5.63;;
55879;SDS011;41802;51.564;-1.838;2022-12-18T08:17:15;18.60;;;5.82;;
55879;SDS011;41802;51.564;-1.838;2022-12-18T08:19:41;18.80;;;5.83;;
55879;SDS011;41802;51.564;-1.838;2022-12-18T08:22:08;21.25;;;6.28;;
55879;SDS011;41802;51.564;-1.838;2022-12-18T08:24:34;19.45;;;6.35;;
55879;SDS011;41802;51.564;-1.838;2022-12-18T08:27:02;18.83;;;6.30;;
55879;SDS011;41802;51.564;-1.838;2022-12-18T08:29:28;20.95;;;7.05;;
55879;SDS011;41802;51.564;-1.838;2022-12-18T08:31:57;18.53;;;5.47;;
55879;SDS011;41802;51.564;-1.838;2022-12-18T08:34:23;17.85;;;6.20;;
55879;SDS011;41802;51.564;-1.838;2022-12-18T08:36:49;22.73;;;6.15;;
55879;SDS011;41802;51.564;-1.838;2022-12-18T08:39:16;20.70;;;6.60;;
55879;SDS011;41802;51.564;-1.838;2022-12-18T08:41:42;19.25;;;6.45;;
55879;SDS011;41802;51.564;-1.838;2022-12-18T08:44:32;22.20;;;6.00;;
55879;SDS011;41802;51.564;-1.838;2022-12-18T08:47:03;21.25;;;6.30;;
55879;SDS011;41802;51.564;-1.838;2022-12-18T08:49:30;17.88;;;6.07;;
55879;SDS011;41802;51.564;-1.838;2022-12-18T08:51:56;17.65;;;6.28;;
55879;SDS011;41802;51.564;-1.838;2022-12-18T08:54:23;19.77;;;6.00;;
55879;SDS011;41802;51.564;-1.838;2022-12-18T08:56:50;16.00;;;5.47;;
55879;SDS011;41802;51.564;-1.838;2022-12-18T08:59:17;23.63;;;6.78;;
55879;SDS011;41802;51.564;-1.838;2022-12-18T09:01:45;20.60;;;6.55;;
55879;SDS011;41802;51.564;-1.838;2022-12-18T09:04:12;22.15;;;6.85;;
55879;SDS011;41802;51.564;-1.838;2022-12-18T09:06:39;21.25;;;7.30;;
55879;SDS011;41802;51.564;-1.838;2022-12-18T09:09:06;24.17;;;6.63;;
55879;SDS011;41802;51.564;-1.838;2022-12-18T09:11:33;18.23;;;6.60;;
55879;SDS011;41802;51.564;-1.838;2022-12-18T09:14:00;22.02;;;6.55;;
55879;SDS011;41802;51.564;-1.838;2022-12-18T09:16:27;18.08;;;7.00;;
55879;SDS011;41802;51.564;-1.838;2022-12-18T09:18:56;20.77;;;7.63;;
55879;SDS011;41802;51.564;-1.838;2022-12-18T09:21:25;25.27;;;8.43;;
55879;SDS011;41802;51.564;-1.838;2022-12-18T09:23:51;23.05;;;8.05;;
55879;SDS011;41802;51.564;-1.838;2022-12-18T09:26:18;23.05;;;8.50;;
55879;SDS011;41802;51.564;-1.838;2022-12-18T09:28:45;22.33;;;7.78;;
55879;SDS011;41802;51.564;-1.838;2022-12-18T09:31:12;22.00;;;8.05;;
55879;SDS011;41802;51.564;-1.838;2022-12-18T09:33:42;26.37;;;9.23;;
55879;SDS011;41802;51.564;-1.838;2022-12-18T09:36:13;22.38;;;8.30;;
55879;SDS011;41802;51.564;-1.838;2022-12-18T09:38:40;21.10;;;7.95;;
55879;SDS011;41802;51.564;-1.838;2022-12-18T09:43:41;25.27;;;8.68;;
55879;SDS011;41802;51.564;-1.838;2022-12-18T09:46:10;26.60;;;8.47;;
55879;SDS011;41802;51.564;-1.838;2022-12-18T09:48:38;25.17;;;9.50;;
55879;SDS011;41802;51.564;-1.838;2022-12-18T09:51:09;27.88;;;8.70;;
55879;SDS011;41802;51.564;-1.838;2022-12-18T09:53:39;30.00;;;9.25;;
55879;SDS011;41802;51.564;-1.838;2022-12-18T09:56:09;27.00;;;9.52;;
55879;SDS011;41802;51.564;-1.838;2022-12-18T09:58:39;27.03;;;9.77;;
55879;SDS011;41802;51.564;-1.838;2022-12-18T10:01:09;27.13;;;9.35;;
55879;SDS011;41802;51.564;-1.838;2022-12-18T10:03:36;29.30;;;10.10;;
55879;SDS011;41802;51.564;-1.838;2022-12-18T10:06:04;31.13;;;9.50;;
55879;SDS011;41802;51.564;-1.838;2022-12-18T10:08:34;30.48;;;9.90;;
55879;SDS011;41802;51.564;-1.838;2022-12-18T10:11:03;28.37;;;9.17;;
55879;SDS011;41802;51.564;-1.838;2022-12-18T10:13:38;28.83;;;9.35;;
55879;SDS011;41802;51.564;-1.838;2022-12-18T10:16:09;28.15;;;9.75;;
55879;SDS011;41802;51.564;-1.838;2022-12-18T10:18:53;26.25;;;9.63;;
55879;SDS011;41802;51.564;-1.838;2022-12-18T10:21:23;25.75;;;9.38;;
55879;SDS011;41802;51.564;-1.838;2022-12-18T10:23:54;27.77;;;10.13;;
55879;SDS011;41802;51.564;-1.838;2022-12-18T10:26:25;30.55;;;10.93;;
55879;SDS011;41802;51.564;-1.838;2022-12-18T10:28:51;36.45;;;11.02;;
55879;SDS011;41802;51.564;-1.838;2022-12-18T10:31:21;28.52;;;10.45;;
55879;SDS011;41802;51.564;-1.838;2022-12-18T10:33:48;32.70;;;10.18;;
55879;SDS011;41802;51.564;-1.838;2022-12-18T10:36:15;30.60;;;10.63;;
55879;SDS011;41802;51.564;-1.838;2022-12-18T10:38:42;32.20;;;10.40;;
55879;SDS011;41802;51.564;-1.838;2022-12-18T10:41:23;33.00;;;11.18;;
55879;SDS011;41802;51.564;-1.838;2022-12-18T10:44:10;36.00;;;10.30;;
55879;SDS011;41802;51.564;-1.838;2022-12-18T10:46:36;32.60;;;10.43;;
55879;SDS011;41802;51.564;-1.838;2022-12-18T10:49:03;30.33;;;10.47;;
55879;SDS011;41802;51.564;-1.838;2022-12-18T10:51:30;40.00;;;12.00;;
55879;SDS011;41802;51.564;-1.838;2022-12-18T10:53:59;32.63;;;10.98;;
55879;SDS011;41802;51.564;-1.838;2022-12-18T10:56:27;43.05;;;12.43;;
55879;SDS011;41802;51.564;-1.838;2022-12-18T10:59:00;31.00;;;11.45;;
55879;SDS011;41802;51.564;-1.838;2022-12-18T11:01:30;31.47;;;11.37;;
55879;SDS011;41802;51.564;-1.838;2022-12-18T11:04:05;35.97;;;11.60;;
55879;SDS011;41802;51.564;-1.838;2022-12-18T11:06:34;34.40;;;11.00;;
55879;SDS011;41802;51.564;-1.838;2022-12-18T11:09:18;34.45;;;12.32;;
55879;SDS011;41802;51.564;-1.838;2022-12-18T11:11:47;29.55;;;10.43;;
55879;SDS011;41802;51.564;-1.838;2022-12-18T11:14:17;38.13;;;11.93;;
55879;SDS011;41802;51.564;-1.838;2022-12-18T11:16:45;35.33;;;11.50;;
55879;SDS011;41802;51.564;-1.838;2022-12-18T11:19:17;34.80;;;12.52;;
55879;SDS011;41802;51.564;-1.838;2022-12-18T11:21:46;38.30;;;11.68;;
55879;SDS011;41802;51.564;-1.838;2022-12-18T11:24:18;36.53;;;12.20;;
55879;SDS011;41802;51.564;-1.838;2022-12-18T11:26:46;29.60;;;10.67;;
55879;SDS011;41802;51.564;-1.838;2022-12-18T11:29:17;33.10;;;11.75;;
55879;SDS011;41802;51.564;-1.838;2022-12-18T11:47:08;26.95;;;9.43;;
55879;SDS011;41802;51.564;-1.838;2022-12-18T11:49:37;28.63;;;10.45;;
55879;SDS011;41802;51.564;-1.838;2022-12-18T11:52:09;29.43;;;9.77;;
55879;SDS011;41802;51.564;-1.838;2022-12-18T11:54:40;28.02;;;9.82;;
55879;SDS011;41802;51.564;-1.838;2022-12-18T11:57:09;27.30;;;10.50;;
55879;SDS011;41802;51.564;-1.838;2022-12-18T11:59:43;29.63;;;10.20;;
55879;SDS011;41802;51.564;-1.838;2022-12-18T12:05:05;26.90;;;9.93;;
55879;SDS011;41802;51.564;-1.838;2022-12-18T12:07:41;32.05;;;9.85;;
55879;SDS011;41802;51.564;-1.838;2022-12-18T12:10:16;27.25;;;9.05;;
55879;SDS011;41802;51.564;-1.838;2022-12-18T12:12:51;30.33;;;9.65;;
55879;SDS011;41802;51.564;-1.838;2022-12-18T12:15:24;24.85;;;9.13;;
55879;SDS011;41802;51.564;-1.838;2022-12-18T12:17:55;28.13;;;8.80;;
55879;SDS011;41802;51.564;-1.838;2022-12-18T12:20:36;27.08;;;8.23;;
55879;SDS011;41802;51.564;-1.838;2022-12-18T12:23:09;24.80;;;7.72;;
55879;SDS011;41802;51.564;-1.838;2022-12-18T12:25:44;29.75;;;8.43;;
55879;SDS011;41802;51.564;-1.838;2022-12-18T12:28:15;29.65;;;8.55;;
55879;SDS011;41802;51.564;-1.838;2022-12-18T12:30:50;26.37;;;8.87;;
55879;SDS011;41802;51.564;-1.838;2022-12-18T12:33:24;28.77;;;8.82;;
55879;SDS011;41802;51.564;-1.838;2022-12-18T12:35:58;28.20;;;10.02;;
55879;SDS011;41802;51.564;-1.838;2022-12-18T12:38:30;30.85;;;9.60;;
55879;SDS011;41802;51.564;-1.838;2022-12-18T12:40:59;21.65;;;6.65;;
55879;SDS011;41802;51.564;-1.838;2022-12-18T12:43:32;26.27;;;8.13;;
55879;SDS011;41802;51.564;-1.838;2022-12-18T12:46:00;22.50;;;7.80;;
55879;SDS011;41802;51.564;-1.838;2022-12-18T12:48:40;24.25;;;7.72;;
55879;SDS011;41802;51.564;-1.838;2022-12-18T12:51:15;23.60;;;7.03;;
55879;SDS011;41802;51.564;-1.838;2022-12-18T12:53:43;20.67;;;6.85;;
55879;SDS011;41802;51.564;-1.838;2022-12-18T12:56:13;22.37;;;6.83;;
55879;SDS011;41802;51.564;-1.838;2022-12-18T12:58:43;22.25;;;6.53;;
55879;SDS011;41802;51.564;-1.838;2022-12-18T13:01:16;19.85;;;6.00;;
55879;SDS011;41802;51.564;-1.838;2022-12-18T13:03:52;22.27;;;6.97;;
55879;SDS011;41802;51.564;-1.838;2022-12-18T13:06:25;16.88;;;5.85;;
55879;SDS011;41802;51.564;-1.838;2022-12-18T13:08:57;16.47;;;5.13;;
55879;SDS011;41802;51.564;-1.838;2022-12-18T13:11:30;16.40;;;5.03;;
55879;SDS011;41802;51.564;-1.838;2022-12-18T13:14:24;16.25;;;5.38;;
55879;SDS011;41802;51.564;-1.838;2022-12-18T13:16:54;15.65;;;4.60;;
55879;SDS011;41802;51.564;-1.838;2022-12-18T13:19:41;16.08;;;5.05;;
55879;SDS011;41802;51.564;-1.838;2022-12-18T13:22:21;14.60;;;4.97;;
55879;SDS011;41802;51.564;-1.838;2022-12-18T13:24:50;13.30;;;5.22;;
55879;SDS011;41802;51.564;-1.838;2022-12-18T13:32:55;13.90;;;4.50;;
55879;SDS011;41802;51.564;-1.838;2022-12-18T13:35:50;12.80;;;4.27;;
55879;SDS011;41802;51.564;-1.838;2022-12-18T13:38:21;13.63;;;4.40;;
55879;SDS011;41802;51.564;-1.838;2022-12-18T13:40:53;15.30;;;4.60;;
55879;SDS011;41802;51.564;-1.838;2022-12-18T13:43:27;17.65;;;4.35;;
55879;SDS011;41802;51.564;-1.838;2022-12-18T13:46:01;12.48;;;4.53;;
55879;SDS011;41802;51.564;-1.838;2022-12-18T13:48:32;11.67;;;3.63;;
55879;SDS011;41802;51.564;-1.838;2022-12-18T13:51:00;10.70;;;3.63;;
55879;SDS011;41802;51.564;-1.838;2022-12-18T13:53:33;9.80;;;3.72;;
55879;SDS011;41802;51.564;-1.838;2022-12-18T13:56:01;11.77;;;3.72;;
55879;SDS011;41802;51.564;-1.838;2022-12-18T13:58:29;14.13;;;4.05;;
55879;SDS011;41802;51.564;-1.838;2022-12-18T14:00:59;12.00;;;3.53;;
55879;SDS011;41802;51.564;-1.838;2022-12-18T14:03:28;9.82;;;3.65;;
55879;SDS011;41802;51.564;-1.838;2022-12-18T14:06:01;10.27;;;3.42;;
55879;SDS011;41802;51.564;-1.838;2022-12-18T14:08:35;8.90;;;3.55;;
55879;SDS011;41802;51.564;-1.838;2022-12-18T14:11:07;11.98;;;3.22;;
55879;SDS011;41802;51.564;-1.838;2022-12-18T14:13:47;10.70;;;3.00;;
55879;SDS011;41802;51.564;-1.838;2022-12-18T14:16:16;9.50;;;3.10;;
55879;SDS011;41802;51.564;-1.838;2022-12-18T14:18:45;9.30;;;3.40;;
55879;SDS011;41802;51.564;-1.838;2022-12-18T14:21:17;11.38;;;3.60;;
55879;SDS011;41802;51.564;-1.838;2022-12-18T14:23:46;9.73;;;3.30;;
55879;SDS011;41802;51.564;-1.838;2022-12-18T14:26:21;7.33;;;2.57;;
55879;SDS011;41802;51.564;-1.838;2022-12-18T14:28:50;7.88;;;2.60;;
55879;SDS011;41802;51.564;-1.838;2022-12-18T14:31:18;9.18;;;3.20;;
55879;SDS011;41802;51.564;-1.838;2022-12-18T14:33:46;7.68;;;2.60;;
55879;SDS011;41802;51.564;-1.838;2022-12-18T14:36:15;7.05;;;2.72;;
55879;SDS011;41802;51.564;-1.838;2022-12-18T14:38:43;12.00;;;2.87;;
55879;SDS011;41802;51.564;-1.838;2022-12-18T14:41:16;9.07;;;2.42;;
55879;SDS011;41802;51.564;-1.838;2022-12-18T14:43:45;7.80;;;2.97;;
55879;SDS011;41802;51.564;-1.838;2022-12-18T14:46:26;8.63;;;3.60;;
55879;SDS011;41802;51.564;-1.838;2022-12-18T14:48:55;7.80;;;3.03;;
55879;SDS011;41802;51.564;-1.838;2022-12-18T14:51:24;6.80;;;3.00;;
55879;SDS011;41802;51.564;-1.838;2022-12-18T14:53:56;9.27;;;2.80;;
55879;SDS011;41802;51.564;-1.838;2022-12-18T14:56:26;8.85;;;3.22;;
55879;SDS011;41802;51.564;-1.838;2022-12-18T14:58:54;7.47;;;2.60;;
55879;SDS011;41802;51.564;-1.838;2022-12-18T15:01:24;6.95;;;2.33;;